Time;durP1;ratioP1;P1;durP2;ratioP2;P2;SDS_P1;SDS_P2;PMS_P1;PMS_P2;Temp;Humidity;BMP_temperature;BMP_pressure;BME280_temperature;BME280_humidity;BME280_pressure;Samples;Min_cycle;Max_cycle;Signal;HPM_P1;HPM_P2
2022/04/29 00:00:42;;;;;;;6.95;3.55;;;;;;;4.43;79.02;101053.77;1692319;83;21053;-70
2022/04/29 00:03:11;;;;;;;16.57;4.20;;;;;;;4.37;80.19;101046.81;1692692;84;21056;-71
2022/04/29 00:05:40;;;;;;;9.38;4.10;;;;;;;4.32;80.12;101057.64;1692718;84;21088;-71
2022/04/29 00:08:10;;;;;;;5.83;3.25;;;;;;;4.26;80.94;101056.78;1692645;83;21060;-70
2022/04/29 00:10:38;;;;;;;7.33;3.05;;;;;;;4.20;81.63;101056.30;1692738;83;21098;-71
2022/04/29 00:13:09;;;;;;;6.35;3.15;;;;;;;4.13;82.37;101059.31;1692372;83;21061;-71
2022/04/29 00:15:38;;;;;;;7.05;3.37;;;;;;;4.08;82.52;101053.66;1692593;83;21137;-70
2022/04/29 00:18:07;;;;;;;10.48;3.85;;;;;;;4.04;83.04;101058.41;1692442;84;21089;-72
2022/04/29 00:20:34;;;;;;;6.47;3.65;;;;;;;3.96;82.97;101060.55;1692662;84;21637;-70
2022/04/29 00:23:02;;;;;;;7.20;3.67;;;;;;;3.86;82.88;101058.75;1692520;83;21493;-71
2022/04/29 00:25:30;;;;;;;9.83;3.60;;;;;;;3.75;83.21;101060.02;1692667;83;21033;-70
2022/04/29 00:27:57;;;;;;;7.62;3.47;;;;;;;3.68;83.23;101057.34;1702753;83;21196;-70
2022/04/29 00:30:24;;;;;;;7.45;3.50;;;;;;;3.60;83.46;101051.23;1708543;84;21425;-71
2022/04/29 00:32:50;;;;;;;8.10;3.87;;;;;;;3.54;83.47;101051.64;1692985;84;21124;-70
2022/04/29 00:35:19;;;;;;;10.88;3.70;;;;;;;3.48;83.66;101053.33;1655579;86;21058;-71
2022/04/29 00:37:51;;;;;;;7.85;3.80;;;;;;;3.44;84.10;101047.21;1691290;84;21545;-71
2022/04/29 00:40:22;;;;;;;7.92;4.03;;;;;;;3.43;84.52;101049.80;1691442;84;28311;-72
2022/04/29 00:42:50;;;;;;;9.28;3.90;;;;;;;3.40;84.90;101050.64;1655363;86;21566;-71
2022/04/29 00:45:20;;;;;;;9.53;3.58;;;;;;;3.37;84.96;101058.45;1691253;84;21120;-72
2022/04/29 00:47:49;;;;;;;10.00;3.55;;;;;;;3.32;84.99;101047.13;1655771;86;21112;-71
2022/04/29 00:50:21;;;;;;;6.17;2.98;;;;;;;3.28;85.60;101053.17;1691321;84;21060;-70
2022/04/29 00:52:51;;;;;;;7.03;3.58;;;;;;;3.25;85.66;101047.95;1691558;84;21578;-70
2022/04/29 00:55:19;;;;;;;7.22;3.37;;;;;;;3.21;86.06;101041.84;1691393;84;21666;-71
2022/04/29 00:57:52;;;;;;;9.00;3.90;;;;;;;3.20;86.25;101050.52;1655577;86;21090;-69
2022/04/29 01:00:20;;;;;;;7.35;3.25;;;;;;;3.19;86.74;101044.85;1691055;84;21239;-71
2022/04/29 01:02:50;;;;;;;8.10;3.72;;;;;;;3.15;86.97;101047.88;1691395;84;21163;-70
2022/04/29 01:05:21;;;;;;;8.08;3.47;;;;;;;3.13;87.09;101043.53;1691322;84;21234;-70
2022/04/29 01:07:50;;;;;;;10.30;4.30;;;;;;;3.08;87.53;101043.48;1691344;84;21069;-69
2022/04/29 01:10:22;;;;;;;7.67;3.90;;;;;;;3.03;87.99;101037.35;1691344;84;21053;-71
2022/04/29 01:12:58;;;;;;;10.00;4.60;;;;;;;2.99;88.03;101040.81;1691433;84;22095;-71
2022/04/29 01:15:26;;;;;;;9.43;4.67;;;;;;;2.94;88.08;101037.27;1655310;86;21050;-72
2022/04/29 01:17:58;;;;;;;11.35;4.72;;;;;;;2.88;88.16;101034.64;1691324;84;21116;-71
2022/04/29 01:20:31;;;;;;;8.65;3.95;;;;;;;2.84;88.15;101034.16;1691435;84;21375;-72
2022/04/29 01:23:06;;;;;;;7.55;4.15;;;;;;;2.79;88.49;101035.86;1691216;84;21723;-70
2022/04/29 01:25:33;;;;;;;10.08;4.33;;;;;;;2.73;88.72;101038.81;1691639;84;21255;-71
2022/04/29 01:28:00;;;;;;;8.50;4.40;;;;;;;2.67;89.02;101037.48;1691030;84;21022;-71
2022/04/29 01:30:28;;;;;;;8.00;4.15;;;;;;;2.63;89.15;101037.00;1691044;84;21069;-71
2022/04/29 01:32:55;;;;;;;6.75;3.45;;;;;;;2.56;89.35;101037.80;1681053;85;21121;-70
2022/04/29 01:35:21;;;;;;;5.67;3.37;;;;;;;2.51;89.86;101043.39;1720151;83;21072;-69
2022/04/29 01:37:49;;;;;;;7.03;4.12;;;;;;;2.49;90.31;101038.59;1720263;83;21237;-71
2022/04/29 01:40:18;;;;;;;8.65;4.05;;;;;;;2.46;90.80;101036.83;1720143;83;21100;-70
2022/04/29 01:42:45;;;;;;;8.90;3.98;;;;;;;2.42;90.90;101038.09;1720081;83;21064;-71
2022/04/29 01:45:16;;;;;;;7.37;3.67;;;;;;;2.36;91.04;101034.11;1719770;83;21790;-69
2022/04/29 01:47:45;;;;;;;9.80;4.42;;;;;;;2.31;91.19;101029.72;1717985;83;21532;-70
2022/04/29 01:50:23;;;;;;;7.30;3.70;;;;;;;2.28;91.74;101031.44;1718777;83;21295;-70
2022/04/29 01:52:51;;;;;;;7.70;3.83;;;;;;;2.25;92.26;101037.44;1719955;83;21060;-70
2022/04/29 01:55:19;;;;;;;8.15;3.80;;;;;;;2.27;93.21;101044.83;1719973;83;21100;-70
2022/04/29 01:57:48;;;;;;;11.93;4.20;;;;;;;2.25;93.57;101040.47;1720282;83;21069;-71
2022/04/29 02:00:17;;;;;;;8.68;4.30;;;;;;;2.22;94.15;101043.91;1693320;83;21076;-70
2022/04/29 02:02:45;;;;;;;7.35;4.05;;;;;;;2.19;94.00;101052.98;1720057;83;21212;-71
2022/04/29 02:05:17;;;;;;;10.20;4.00;;;;;;;2.15;93.90;101051.20;1720002;83;21086;-69
2022/04/29 02:07:44;;;;;;;9.80;4.33;;;;;;;2.13;94.40;101060.70;1720173;83;21143;-70
2022/04/29 02:10:13;;;;;;;9.95;4.20;;;;;;;2.09;94.21;101049.81;1720126;83;21074;-70
2022/04/29 02:12:43;;;;;;;10.65;4.00;;;;;;;2.04;94.30;101047.16;1720340;83;21567;-70
2022/04/29 02:15:19;;;;;;;10.45;4.95;;;;;;;2.00;94.40;101048.39;1709130;83;21557;-72
2022/04/29 02:17:48;;;;;;;10.72;4.42;;;;;;;1.94;94.75;101048.34;1720522;83;21084;-71
2022/04/29 02:20:15;;;;;;;9.78;4.25;;;;;;;1.91;94.85;101046.58;1720136;83;21048;-70
2022/04/29 02:22:42;;;;;;;7.40;4.05;;;;;;;1.87;94.84;101054.75;1720208;83;21628;-71
2022/04/29 02:25:09;;;;;;;10.98;4.67;;;;;;;1.84;95.13;101054.72;1720063;83;21149;-70
2022/04/29 02:27:38;;;;;;;7.55;4.45;;;;;;;1.81;96.18;101052.05;1718948;83;21177;-70
2022/04/29 02:30:08;;;;;;;9.75;4.70;;;;;;;1.77;96.41;101051.99;1714268;83;21029;-69
2022/04/29 02:32:35;;;;;;;10.40;4.80;;;;;;;1.73;96.36;101049.80;1680265;83;21115;-71
2022/04/29 02:35:08;;;;;;;10.07;4.67;;;;;;;1.67;96.28;101051.00;1671502;84;21686;-72
2022/04/29 02:37:36;;;;;;;;;;;;;;;1.68;96.21;101055.36;1673972;84;21083;-70
2022/04/29 02:40:05;;;;;;;9.05;4.45;;;;;;;1.65;96.39;101055.30;1671367;85;21145;-71
2022/04/29 02:42:32;;;;;;;12.53;5.10;;;;;;;1.64;97.33;101058.76;1671447;84;21108;-71
2022/04/29 02:45:01;;;;;;;10.38;4.70;;;;;;;1.62;97.92;101060.45;1671200;85;21139;-71
2022/04/29 02:47:30;;;;;;;10.82;4.53;;;;;;;1.59;98.54;101061.72;1669486;85;21024;-71
2022/04/29 02:49:59;;;;;;;12.23;4.50;;;;;;;1.57;98.96;101068.61;1671268;85;21004;-69
2022/04/29 02:52:27;;;;;;;11.53;4.65;;;;;;;1.55;99.45;101070.31;1671275;85;21322;-70
2022/04/29 02:54:55;;;;;;;9.63;5.22;;;;;;;1.53;99.65;101072.00;1671325;84;21052;-71
2022/04/29 02:57:26;;;;;;;8.20;5.33;;;;;;;1.53;100.00;101076.77;1656906;85;21070;-70
2022/04/29 02:59:55;;;;;;;11.73;5.58;;;;;;;1.55;100.00;101088.05;1671209;84;21087;-71
2022/04/29 03:02:22;;;;;;;11.40;5.17;;;;;;;1.57;100.00;101086.78;1642468;85;21122;-71
2022/04/29 03:04:49;;;;;;;12.20;5.40;;;;;;;1.58;100.00;101081.59;1671316;84;21156;-69
2022/04/29 03:07:17;;;;;;;10.98;5.12;;;;;;;1.61;100.00;101082.06;1671420;84;21068;-72
2022/04/29 03:09:48;;;;;;;6.40;4.10;;;;;;;1.64;99.98;101084.72;1671160;85;21067;-70
2022/04/29 03:12:15;;;;;;;11.57;5.30;;;;;;;1.70;99.78;101086.09;1671502;85;21073;-71
2022/04/29 03:14:45;;;;;;;9.00;4.17;;;;;;;1.81;100.00;101089.72;1671222;85;21077;-71
2022/04/29 03:19:59;;;;;;;10.55;4.80;;;;;;;2.50;99.78;101087.98;1671287;85;21040;-69
2022/04/29 03:22:26;;;;;;;12.28;4.30;;;;;;;3.09;98.53;101094.67;1671467;84;21060;-71
2022/04/29 03:24:55;;;;;;;16.27;5.20;;;;;;;3.58;95.79;101093.75;1671346;84;21117;-72
2022/04/29 03:27:21;;;;;;;10.15;4.45;;;;;;;4.03;92.41;101087.96;1671321;85;21098;-71
2022/04/29 03:29:49;;;;;;;9.63;4.33;;;;;;;4.43;90.16;101094.64;1663925;84;21160;-71
2022/04/29 03:32:18;;;;;;;13.58;4.33;;;;;;;4.96;88.28;101091.30;1692748;84;21061;-69
2022/04/29 03:34:51;;;;;;;8.13;4.37;;;;;;;5.49;85.87;101084.34;1701736;84;21093;-71
2022/04/29 03:37:17;;;;;;;9.70;4.60;;;;;;;6.04;83.24;101090.36;1706750;83;21049;-71
2022/04/29 03:39:44;;;;;;;11.08;4.65;;;;;;;6.54;79.95;101091.48;1706657;83;21625;-73
2022/04/29 03:42:12;;;;;;;10.72;4.03;;;;;;;6.99;77.23;101088.14;1706684;83;21069;-70
2022/04/29 03:44:39;;;;;;;10.18;3.95;;;;;;;7.45;74.93;101089.09;1706584;84;21062;-71
2022/04/29 03:47:06;;;;;;;7.45;3.92;;;;;;;7.89;72.28;101087.78;1706719;83;21097;-69
2022/04/29 03:49:47;;;;;;;10.85;3.77;;;;;;;8.43;69.16;101089.38;1705181;83;21092;-71
2022/04/29 03:52:19;;;;;;;9.90;3.87;;;;;;;8.81;67.02;101082.72;1706658;83;21013;-71
2022/04/29 03:54:49;;;;;;;9.35;3.45;;;;;;;9.15;65.29;101088.79;1706227;84;21053;-72
2022/04/29 03:57:16;;;;;;;8.18;3.40;;;;;;;9.49;64.15;101092.19;1706665;84;22090;-72
2022/04/29 03:59:44;;;;;;;5.67;3.30;;;;;;;9.84;62.60;101092.41;1706600;84;21026;-71
2022/04/29 04:02:10;;;;;;;7.08;3.75;;;;;;;10.17;61.08;101090.05;1706587;83;21034;-73
2022/04/29 04:04:37;;;;;;;11.00;3.75;;;;;;;10.53;59.92;101091.51;1706365;83;21081;-72
2022/04/29 04:07:04;;;;;;;9.35;3.60;;;;;;;10.90;58.45;101089.38;1706483;84;21297;-72
2022/04/29 04:09:39;;;;;;;5.90;3.65;;;;;;;11.26;56.83;101093.38;1705844;83;21549;-71
2022/04/29 04:12:09;;;;;;;8.68;3.60;;;;;;;11.61;55.85;101094.25;1706456;83;21588;-71
2022/04/29 04:14:44;;;;;;;7.35;3.77;;;;;;;11.98;54.21;101101.22;1679540;83;21074;-70
2022/04/29 04:17:11;;;;;;;7.30;3.75;;;;;;;12.34;52.66;101096.23;1706589;83;21082;-71
2022/04/29 04:19:38;;;;;;;7.70;3.52;;;;;;;12.71;50.80;101091.63;1706569;83;21112;-71
2022/04/29 04:22:05;;;;;;;7.40;3.80;;;;;;;12.93;50.30;101094.45;1706333;83;21032;-74
2022/04/29 04:24:33;;;;;;;9.58;3.85;;;;;;;13.31;49.14;101091.09;1706555;84;21053;-71
2022/04/29 04:27:01;;;;;;;7.58;3.77;;;;;;;13.65;48.00;101089.49;1706565;83;21057;-71
2022/04/29 04:29:31;;;;;;;7.30;3.85;;;;;;;13.94;47.30;101092.45;1710325;83;21570;-70
2022/04/29 04:31:57;;;;;;;15.08;4.75;;;;;;;14.27;46.23;101086.84;1690042;83;21236;-71
2022/04/29 04:37:10;;;;;;;13.18;5.87;;;;;;;15.01;44.29;101084.02;1671491;85;21584;-71
2022/04/29 04:39:37;;;;;;;13.72;6.40;;;;;;;15.36;40.61;101079.05;1671430;85;21040;-71
2022/04/29 04:42:07;;;;;;;17.25;5.33;;;;;;;15.27;40.05;101081.16;1671130;84;21059;-72
2022/04/29 04:44:39;;;;;;;12.15;5.50;;;;;;;15.34;40.42;101081.77;1640115;87;21205;-71
2022/04/29 04:47:06;;;;;;;13.13;4.80;;;;;;;15.65;39.06;101082.67;1640869;87;21077;-70
2022/04/29 04:49:36;;;;;;;8.95;4.30;;;;;;;15.99;37.91;101081.24;1601265;87;21665;-73
2022/04/29 04:52:06;;;;;;;7.72;4.00;;;;;;;16.24;36.09;101085.43;1638361;87;21144;-70
2022/04/29 04:54:33;;;;;;;7.67;3.90;;;;;;;16.21;35.59;101085.58;1640535;87;21096;-71
2022/04/29 04:57:00;;;;;;;7.17;3.37;;;;;;;16.29;36.16;101082.13;1640460;87;21255;-72
2022/04/29 04:59:26;;;;;;;6.50;3.70;;;;;;;16.37;34.77;101079.95;1640505;87;21672;-71
2022/04/29 05:01:53;;;;;;;5.65;3.25;;;;;;;16.40;34.97;101080.28;1600377;87;21102;-71
2022/04/29 05:04:27;;;;;;;6.55;3.67;;;;;;;16.65;35.60;101077.34;1644576;86;21074;-71
2022/04/29 05:07:12;;;;;;;7.72;4.12;;;;;;;16.96;34.87;101077.63;1655857;85;21098;-70
2022/04/29 05:09:39;;;;;;;11.50;6.72;;;;;;;17.22;34.01;101076.81;1655696;86;21178;-72
2022/04/29 05:12:10;;;;;;;13.00;7.67;;;;;;;17.05;34.68;101083.45;1629514;86;21019;-72
2022/04/29 05:14:56;;;;;;;16.30;7.92;;;;;;;17.05;34.48;101084.79;1655832;85;21630;-72
2022/04/29 05:17:24;;;;;;;13.98;8.38;;;;;;;17.32;34.63;101087.42;1655651;85;21059;-72
2022/04/29 05:19:54;;;;;;;18.98;9.20;;;;;;;17.63;33.87;101090.33;1652159;86;21027;-71
2022/04/29 05:22:24;;;;;;;16.45;8.20;;;;;;;17.89;33.67;101097.00;1655997;85;21712;-71
2022/04/29 05:24:52;;;;;;;21.57;8.43;;;;;;;18.25;33.57;101094.19;1655389;86;21697;-71
2022/04/29 05:27:37;;;;;;;21.57;8.50;;;;;;;18.72;32.76;101092.52;1655827;85;21065;-70
2022/04/29 05:30:09;;;;;;;18.85;8.28;;;;;;;19.05;31.30;101087.99;1617308;86;21565;-71
2022/04/29 05:32:55;;;;;;;12.30;6.60;;;;;;;19.10;30.94;101086.88;1696986;84;21159;-71
2022/04/29 05:35:41;;;;;;;12.98;6.42;;;;;;;19.14;31.45;101094.63;1697792;84;21284;-71
2022/04/29 05:42:14;;;;;;;13.50;5.92;;;;;;;19.37;31.35;101083.94;1697797;84;21518;-71
2022/04/29 05:43:43;;;;;;;14.95;6.00;;;;;;;19.75;30.33;101089.31;1697694;84;21505;-72
2022/04/29 05:46:10;;;;;;;18.12;5.28;;;;;;;19.90;29.44;101090.59;1697665;83;21088;-71
2022/04/29 05:48:38;;;;;;;15.58;6.70;;;;;;;19.72;28.34;101090.84;1697943;83;21077;-71
2022/04/29 05:51:06;;;;;;;19.87;5.97;;;;;;;19.37;28.58;101090.61;1697693;84;21100;-71
2022/04/29 05:53:34;;;;;;;16.02;4.83;;;;;;;19.02;28.71;101089.96;1683135;84;21124;-72
2022/04/29 05:56:04;;;;;;;15.28;5.50;;;;;;;18.77;28.59;101090.04;1697463;84;21081;-72
2022/04/29 05:58:32;;;;;;;13.03;5.58;;;;;;;18.38;29.49;101094.37;1682978;85;21060;-72
2022/04/29 06:01:05;;;;;;;15.28;5.28;;;;;;;18.32;29.78;101092.06;1657972;85;21572;-72
2022/04/29 06:03:33;;;;;;;7.15;3.62;;;;;;;18.36;29.85;101093.63;1685676;84;21533;-70
2022/04/29 06:06:01;;;;;;;7.58;3.33;;;;;;;18.60;29.38;101092.26;1685691;85;21077;-71
2022/04/29 06:08:30;;;;;;;11.18;3.20;;;;;;;18.86;29.18;101084.63;1685871;83;21081;-73
2022/04/29 06:10:57;;;;;;;6.25;2.77;;;;;;;19.06;29.68;101087.03;1685643;85;21040;-71
2022/04/29 06:13:25;;;;;;;4.90;2.62;;;;;;;19.49;28.50;101089.03;1685673;85;22073;-70
2022/04/29 06:15:59;;;;;;;6.95;3.08;;;;;;;19.70;28.45;101092.27;1683590;84;21097;-70
2022/04/29 06:18:29;;;;;;;6.50;2.85;;;;;;;19.93;26.83;101100.72;1688782;84;21038;-72
2022/04/29 06:21:02;;;;;;;4.83;2.60;;;;;;;19.93;26.94;101100.72;1685168;84;21550;-71
2022/04/29 06:23:51;;;;;;;4.97;2.52;;;;;;;19.77;27.03;101102.97;1685618;84;21081;-72
2022/04/29 06:26:21;;;;;;;6.17;2.58;;;;;;;19.91;27.50;101108.81;1681394;84;21118;-71
2022/04/29 06:28:50;;;;;;;7.08;2.65;;;;;;;20.07;26.68;101108.27;1684836;85;21116;-71
2022/04/29 06:31:20;;;;;;;6.45;2.67;;;;;;;20.02;26.73;101110.84;1685730;84;22060;-71
2022/04/29 06:33:54;;;;;;;5.42;2.60;;;;;;;19.88;27.16;101109.86;1703358;84;21056;-71
2022/04/29 06:36:22;;;;;;;7.22;2.80;;;;;;;20.02;27.79;101110.84;1706596;83;21104;-72
2022/04/29 06:38:53;;;;;;;4.80;2.17;;;;;;;20.45;26.96;101111.72;1706987;83;21078;-70
2022/04/29 06:41:38;;;;;;;3.65;2.27;;;;;;;20.51;25.71;101115.33;1706413;84;21541;-71
2022/04/29 06:44:06;;;;;;;3.15;2.02;;;;;;;20.39;26.54;101119.27;1706660;84;21053;-71
2022/04/29 06:46:53;;;;;;;3.12;2.30;;;;;;;20.32;26.56;101124.99;1706490;83;21050;-72
2022/04/29 06:49:39;;;;;;;7.50;2.52;;;;;;;20.50;26.46;101111.44;1706650;83;21134;-72
2022/04/29 06:52:25;;;;;;;5.28;2.10;;;;;;;20.69;25.92;101120.52;1706466;83;21279;-72
2022/04/29 06:54:55;;;;;;;6.67;2.80;;;;;;;20.67;25.55;101117.94;1705282;83;21046;-71
2022/04/29 06:58:27;;;;;;;3.60;2.20;;;;;;;20.41;25.93;101113.35;1814554;79;23279;-72
2022/04/29 07:00:53;;;;;;;4.37;2.15;;;;;;;20.15;26.26;101122.48;1787813;80;21502;-73
2022/04/29 07:03:20;;;;;;;3.20;1.98;;;;;;;20.22;25.89;101111.82;1787559;80;21257;-72
2022/04/29 07:05:47;;;;;;;6.62;2.10;;;;;;;20.37;25.74;101115.83;1788043;80;20955;-71
2022/04/29 07:08:17;;;;;;;3.60;1.95;;;;;;;20.45;26.29;101114.85;1781929;80;21053;-71
2022/04/29 07:11:04;;;;;;;9.40;2.77;;;;;;;20.77;25.29;101110.66;1758981;81;20969;-71
2022/04/29 07:13:36;;;;;;;3.15;2.00;;;;;;;21.18;25.48;101110.63;1755831;81;21083;-71
2022/04/29 07:16:05;;;;;;;4.28;1.92;;;;;;;21.73;24.63;101113.66;1758704;81;21386;-71
2022/04/29 07:18:34;;;;;;;3.70;1.77;;;;;;;21.86;24.48;101108.33;1729219;81;21052;-71
2022/04/29 07:21:06;;;;;;;4.83;1.77;;;;;;;21.91;24.10;101108.02;1729188;81;21017;-72
2022/04/29 07:23:34;;;;;;;3.33;1.77;;;;;;;21.89;23.87;101101.40;1758999;81;21048;-72
2022/04/29 07:26:00;;;;;;;4.37;2.17;;;;;;;21.84;23.72;101102.20;1758605;81;21049;-70
2022/04/29 07:28:29;;;;;;;2.95;1.87;;;;;;;22.08;23.68;101102.80;1758710;81;21140;-72
2022/04/29 07:30:57;;;;;;;4.30;2.20;;;;;;;22.40;23.89;101101.41;1758540;81;21044;-71
2022/04/29 07:33:30;;;;;;;3.40;2.10;;;;;;;22.70;23.28;101104.20;1735524;81;21691;-72
2022/04/29 07:41:46;;;;;;;2.80;1.67;;;;;;;22.60;23.22;101107.19;1758865;81;21257;-72
2022/04/29 07:44:15;;;;;;;3.62;1.70;;;;;;;22.16;23.39;101109.35;1759002;81;21489;-70
2022/04/29 07:46:45;;;;;;;6.87;1.75;;;;;;;21.97;23.48;101104.42;1758845;81;21014;-72
2022/04/29 07:49:30;;;;;;;3.95;1.85;;;;;;;21.74;23.38;101103.33;1759352;81;20983;-71
2022/04/29 07:51:58;;;;;;;3.87;1.70;;;;;;;21.27;23.28;101101.14;1758940;81;21056;-73
2022/04/29 07:54:25;;;;;;;3.70;1.62;;;;;;;20.82;23.64;101101.84;1759089;81;22152;-71
2022/04/29 07:56:53;;;;;;;5.17;2.15;;;;;;;20.46;24.42;101099.20;1755807;80;21061;-72
2022/04/29 07:59:21;;;;;;;3.60;2.00;;;;;;;20.24;24.39;101091.64;1745172;82;21454;-72
2022/04/29 08:01:48;;;;;;;6.90;2.20;;;;;;;20.02;24.76;101081.44;1745811;82;21577;-72
2022/04/29 08:04:16;;;;;;;4.92;2.10;;;;;;;19.88;25.01;101088.96;1746177;82;20998;-71
2022/04/29 08:06:42;;;;;;;7.55;2.17;;;;;;;19.78;25.41;101089.97;1745897;82;21217;-71
2022/04/29 08:09:09;;;;;;;3.85;1.95;;;;;;;19.58;25.84;101086.27;1745408;82;21626;-71
2022/04/29 08:11:38;;;;;;;3.40;1.67;;;;;;;19.17;26.24;101082.90;1745453;82;21050;-71
2022/04/29 08:14:08;;;;;;;6.67;2.40;;;;;;;18.99;26.55;101085.66;1742586;82;21077;-72
2022/04/29 08:16:36;;;;;;;5.08;2.27;;;;;;;18.80;27.22;101079.18;1742181;82;21050;-71
2022/04/29 08:19:05;;;;;;;4.20;2.40;;;;;;;19.06;27.00;101079.02;1745155;82;22389;-72
2022/04/29 08:21:39;;;;;;;7.20;2.67;;;;;;;19.64;25.99;101066.72;1743138;82;21026;-72
2022/04/29 08:24:07;;;;;;;5.25;2.10;;;;;;;20.17;25.79;101059.07;1745358;80;21836;-71
2022/04/29 08:26:34;;;;;;;5.35;2.40;;;;;;;20.63;25.29;101052.66;1745575;82;21514;-72
2022/04/29 08:29:03;;;;;;;4.00;2.20;;;;;;;20.86;25.10;101059.19;1745285;82;21029;-72
2022/04/29 08:31:31;;;;;;;3.95;2.10;;;;;;;21.00;24.33;101056.46;1745107;82;21223;-70
2022/04/29 08:34:00;;;;;;;3.72;1.92;;;;;;;21.30;24.13;101052.70;1745332;82;21232;-71
2022/04/29 08:36:26;;;;;;;5.58;2.35;;;;;;;21.54;23.82;101052.91;1745317;80;21081;-71
2022/04/29 08:38:54;;;;;;;3.75;1.75;;;;;;;21.74;24.24;101060.89;1745350;82;21483;-71
2022/04/29 08:41:21;;;;;;;7.70;2.10;;;;;;;21.79;23.48;101052.08;1745423;82;21590;-70
2022/04/29 08:43:48;;;;;;;3.45;1.77;;;;;;;21.73;24.45;101047.13;1745572;82;21584;-71
2022/04/29 08:46:22;;;;;;;2.58;1.67;;;;;;;21.66;24.75;101053.87;1744817;82;21518;-71
2022/04/29 08:49:06;;;;;;;4.95;2.17;;;;;;;21.54;24.42;101047.55;1745130;82;21008;-71
2022/04/29 08:51:38;;;;;;;3.22;1.82;;;;;;;21.37;24.90;101051.31;1745195;82;21013;-71
2022/04/29 08:54:05;;;;;;;3.30;1.40;;;;;;;21.36;25.14;101049.61;1745492;82;21049;-73
2022/04/29 08:59:20;;;;;;;6.00;2.05;;;;;;;21.06;24.06;101043.16;1745389;81;21077;-71
2022/04/29 09:01:47;;;;;;;3.75;2.00;;;;;;;20.50;24.95;101047.22;1745216;82;22278;-71
2022/04/29 09:04:13;;;;;;;3.47;1.62;;;;;;;20.24;25.09;101045.69;1745387;82;21479;-71
2022/04/29 09:06:50;;;;;;;5.05;1.95;;;;;;;20.13;24.76;101037.52;1745201;82;21026;-71
2022/04/29 09:09:21;;;;;;;4.60;1.82;;;;;;;20.02;25.12;101041.33;1745518;82;21134;-73
2022/04/29 09:11:49;;;;;;;2.00;1.60;;;;;;;19.88;24.90;101040.37;1745119;82;22229;-71
2022/04/29 09:14:24;;;;;;;2.25;1.50;;;;;;;19.64;25.60;101044.48;1745109;82;21136;-73
2022/04/29 09:16:51;;;;;;;5.45;1.87;;;;;;;19.50;26.09;101037.30;1745208;82;21070;-71
2022/04/29 09:19:32;;;;;;;3.42;1.90;;;;;;;19.42;26.34;101037.77;1745295;82;21022;-73
2022/04/29 09:22:08;;;;;;;4.47;2.00;;;;;;;19.41;26.99;101033.85;1745282;82;21131;-73
2022/04/29 09:25:00;;;;;;;4.30;2.15;;;;;;;19.38;27.28;101036.23;1745241;82;21041;-72
2022/04/29 09:28:01;;;;;;;4.75;1.82;;;;;;;19.43;25.90;101040.81;1738033;81;21057;-73
2022/04/29 09:30:42;;;;;;;7.50;1.77;;;;;;;19.37;26.55;101039.87;1726101;82;21041;-72
2022/04/29 09:33:21;;;;;;;4.75;1.77;;;;;;;19.28;26.43;101037.74;1738740;82;21025;-72
2022/04/29 09:35:50;;;;;;;5.42;1.90;;;;;;;19.22;26.60;101032.27;1742329;82;21102;-74
2022/04/29 09:41:01;;;;;;;4.75;2.08;;;;;;;19.03;26.78;101032.49;1745764;82;20990;-72
2022/04/29 09:43:42;;;;;;;5.03;2.12;;;;;;;19.04;26.61;101029.34;1745263;82;21068;-73
2022/04/29 09:46:23;;;;;;;3.25;2.12;;;;;;;19.26;26.69;101024.47;1745337;82;21100;-72
2022/04/29 09:49:06;;;;;;;3.30;2.10;;;;;;;19.50;26.61;101027.47;1745442;82;21210;-72
2022/04/29 09:51:51;;;;;;;5.40;2.77;;;;;;;19.79;26.88;101024.89;1745389;82;20983;-71
2022/04/29 09:54:29;;;;;;;6.12;3.22;;;;;;;20.04;26.75;101026.91;1745349;82;21470;-73
2022/04/29 09:57:15;;;;;;;7.28;3.45;;;;;;;20.09;26.38;101019.45;1745566;82;21113;-71
2022/04/29 09:59:54;;;;;;;9.83;4.25;;;;;;;20.05;27.11;101016.58;1745325;81;21059;-71
2022/04/29 10:02:26;;;;;;;7.10;4.10;;;;;;;19.99;26.85;101021.45;1744351;82;21265;-70
2022/04/29 10:04:55;;;;;;;8.08;3.85;;;;;;;20.03;26.82;101014.96;1745446;82;21006;-71
2022/04/29 10:07:24;;;;;;;7.75;4.00;;;;;;;20.12;27.19;101023.74;1745392;82;21049;-71
2022/04/29 10:10:00;;;;;;;9.83;4.72;;;;;;;20.33;26.99;101019.70;1745445;82;21089;-72
2022/04/29 10:12:31;;;;;;;9.55;4.50;;;;;;;20.83;25.77;101015.23;1748665;82;21049;-73
2022/04/29 10:15:09;;;;;;;9.03;4.60;;;;;;;21.33;25.10;101018.53;1721320;82;21109;-72
2022/04/29 10:23:13;;;;;;;8.85;3.67;;;;;;;22.41;23.30;100998.97;1745079;82;21113;-73
2022/04/29 10:25:43;;;;;;;12.93;4.42;;;;;;;22.33;22.75;101005.37;1745226;82;21016;-71
2022/04/29 10:28:19;;;;;;;7.67;3.47;;;;;;;22.36;22.89;100992.59;1745090;82;21621;-73
2022/04/29 10:30:47;;;;;;;13.62;4.00;;;;;;;22.56;22.34;101001.00;1744065;82;21041;-72
2022/04/29 10:33:22;;;;;;;6.78;3.17;;;;;;;22.39;22.49;100999.56;1715757;83;21033;-72
2022/04/29 10:35:56;;;;;;;7.95;2.70;;;;;;;22.17;22.94;101004.23;1715442;83;21069;-71
2022/04/29 10:38:31;;;;;;;6.78;2.83;;;;;;;22.06;23.01;101005.48;1714062;83;21109;-73
2022/04/29 10:41:19;;;;;;;9.00;3.72;;;;;;;21.87;22.98;100998.75;1715383;83;21183;-72
2022/04/29 10:43:56;;;;;;;6.80;2.98;;;;;;;21.91;22.56;100994.89;1715280;83;21090;-71
2022/04/29 10:46:39;;;;;;;6.10;3.20;;;;;;;21.69;23.79;100999.55;1715211;83;21536;-71
2022/04/29 10:49:26;;;;;;;6.65;3.12;;;;;;;21.76;23.93;100994.62;1715392;83;21061;-71
2022/04/29 10:52:26;;;;;;;13.50;3.90;;;;;;;21.52;23.85;100995.38;1715694;83;21034;-71
2022/04/29 10:54:58;;;;;;;8.25;3.08;;;;;;;21.21;23.89;100999.74;1703054;83;21165;-72
2022/04/29 10:57:40;;;;;;;7.97;3.83;;;;;;;21.23;24.26;100995.14;1715395;83;20999;-71
2022/04/29 11:00:12;;;;;;;5.78;3.33;;;;;;;21.56;24.58;100990.19;1716125;82;21552;-72
2022/04/29 11:02:41;;;;;;;8.80;3.70;;;;;;;21.88;23.62;100990.22;1718106;83;21021;-72
2022/04/29 11:05:08;;;;;;;6.97;3.77;;;;;;;21.95;24.41;100988.35;1715498;83;21037;-72
2022/04/29 11:07:48;;;;;;;8.45;3.30;;;;;;;21.84;23.45;100980.20;1691752;83;21191;-71
2022/04/29 11:10:21;;;;;;;4.20;2.50;;;;;;;21.38;23.27;100983.39;1718297;83;21057;-72
2022/04/29 11:13:03;;;;;;;6.65;3.00;;;;;;;21.02;24.60;100984.91;1738565;82;21013;-71
2022/04/29 11:15:50;;;;;;;5.50;3.20;;;;;;;20.82;25.18;100982.71;1747803;81;21009;-71
2022/04/29 11:18:23;;;;;;;6.70;2.45;;;;;;;20.65;25.64;100978.00;1715623;82;21108;-72
2022/04/29 11:20:59;;;;;;;5.53;2.40;;;;;;;20.39;25.04;100982.84;1747819;82;21134;-72
2022/04/29 11:26:18;;;;;;;4.78;2.47;;;;;;;20.23;25.18;100972.27;1747798;81;21029;-71
2022/04/29 11:28:53;;;;;;;4.97;2.45;;;;;;;20.00;25.72;100971.05;1747724;82;21069;-71
2022/04/29 11:31:37;;;;;;;7.25;2.50;;;;;;;19.96;25.94;100970.38;1746889;82;21045;-71
2022/04/29 11:34:09;;;;;;;4.28;2.27;;;;;;;19.83;25.84;100972.97;1747602;82;21201;-73
2022/04/29 11:36:37;;;;;;;4.28;2.22;;;;;;;19.79;25.85;100970.11;1747780;81;21610;-71
2022/04/29 11:39:18;;;;;;;2.98;1.82;;;;;;;19.75;26.23;100967.23;1748288;82;21290;-72
2022/04/29 11:42:01;;;;;;;6.45;2.50;;;;;;;19.68;26.46;100961.86;1747585;82;21034;-72
2022/04/29 11:44:38;;;;;;;8.20;2.33;;;;;;;19.39;26.55;100963.15;1747754;82;21088;-72
2022/04/29 11:47:06;;;;;;;5.40;2.70;;;;;;;19.07;27.07;100955.29;1748205;82;21168;-73
2022/04/29 11:49:33;;;;;;;7.67;2.20;;;;;;;18.93;27.71;100963.23;1748019;82;21025;-73
2022/04/29 11:52:21;;;;;;;5.55;2.25;;;;;;;18.78;27.62;100960.14;1747841;82;21035;-72
2022/04/29 11:54:54;;;;;;;6.12;2.75;;;;;;;18.69;27.12;100963.31;1747965;82;21033;-72
2022/04/29 11:57:24;;;;;;;3.65;2.22;;;;;;;18.79;27.48;100953.84;1748053;81;21068;-72
2022/04/29 11:59:51;;;;;;;4.67;2.40;;;;;;;18.93;27.38;100947.22;1746970;80;21154;-72
2022/04/29 12:02:20;;;;;;;5.65;2.40;;;;;;;19.05;27.89;100941.17;1745277;82;20998;-73
2022/04/29 12:05:01;;;;;;;5.42;2.62;;;;;;;19.24;28.11;100924.89;1745515;82;21597;-72
2022/04/29 12:07:31;;;;;;;3.50;2.37;;;;;;;19.43;27.06;100920.62;1745236;82;21056;-73
2022/04/29 12:10:01;;;;;;;4.78;2.10;;;;;;;19.79;26.73;100917.98;1744798;82;21042;-71
2022/04/29 12:12:30;;;;;;;3.27;2.40;;;;;;;20.01;26.54;100913.94;1724124;82;21573;-71
2022/04/29 12:14:59;;;;;;;5.92;2.55;;;;;;;19.99;26.88;100918.52;1745087;82;21311;-72